Time;durP1;ratioP1;P1;durP2;ratioP2;P2;SDS_P1;SDS_P2;PMS_P1;PMS_P2;Temp;Humidity;BMP_temperature;BMP_pressure;BME280_temperature;BME280_humidity;BME280_pressure;Samples;Min_cycle;Max_cycle;Signal;HPM_P1;HPM_P2
2022/03/01 00:00:32;;;;;;;19.90;13.35;;;3.70;99.90;;;;;;5095199;28;20036;-73
2022/03/01 00:02:57;;;;;;;17.85;12.23;;;3.60;99.90;;;;;;5102315;28;20044;-73
2022/03/01 00:05:23;;;;;;;20.17;13.02;;;3.70;99.90;;;;;;5073027;28;20155;-73
2022/03/01 00:07:49;;;;;;;20.00;13.40;;;3.60;99.90;;;;;;5098531;28;20087;-73
2022/03/01 00:10:14;;;;;;;22.35;13.68;;;3.50;99.90;;;;;;5074217;28;20116;-73
2022/03/01 00:12:40;;;;;;;19.20;12.68;;;3.40;99.90;;;;;;5093721;28;20407;-73
2022/03/01 00:15:07;;;;;;;21.92;13.32;;;3.30;99.90;;;;;;5092678;28;20044;-74
2022/03/01 00:17:32;;;;;;;20.13;14.23;;;3.20;99.90;;;;;;5104133;28;20082;-73
2022/03/01 00:19:58;;;;;;;20.40;13.15;;;3.10;99.90;;;;;;5086967;28;20040;-73
2022/03/01 00:22:24;;;;;;;20.80;13.82;;;3.00;99.90;;;;;;5097493;28;20097;-73
2022/03/01 00:24:49;;;;;;;20.63;13.43;;;3.00;99.90;;;;;;5099843;28;20044;-73
2022/03/01 00:27:16;;;;;;;21.05;14.13;;;3.00;99.90;;;;;;5054852;28;1082775;-73
2022/03/01 00:29:41;;;;;;;18.75;12.60;;;3.00;99.90;;;;;;5092421;28;20057;-73
2022/03/01 00:32:07;;;;;;;20.33;13.40;;;2.90;99.90;;;;;;5097262;28;20066;-73
2022/03/01 00:34:33;;;;;;;24.17;14.32;;;2.90;99.90;;;;;;5098310;28;20048;-73
2022/03/01 00:36:59;;;;;;;25.67;14.20;;;2.80;99.90;;;;;;5104044;28;20040;-73
2022/03/01 00:39:25;;;;;;;23.55;13.68;;;2.70;99.90;;;;;;5096286;28;20131;-73
2022/03/01 00:41:50;;;;;;;21.30;14.00;;;2.70;99.90;;;;;;5103882;28;20050;-73
2022/03/01 00:44:16;;;;;;;22.20;13.90;;;2.60;99.90;;;;;;5092996;28;20512;-73
2022/03/01 00:46:42;;;;;;;24.67;14.27;;;2.50;99.90;;;;;;5091604;28;20044;-73
2022/03/01 00:49:07;;;;;;;21.35;13.77;;;2.50;99.90;;;;;;5104315;28;20055;-73
2022/03/01 00:51:33;;;;;;;19.50;13.55;;;2.40;99.90;;;;;;5097801;28;20101;-72
2022/03/01 00:53:59;;;;;;;19.05;12.57;;;2.50;99.90;;;;;;5104333;28;20044;-73
2022/03/01 00:56:25;;;;;;;19.25;12.85;;;2.50;99.90;;;;;;5101569;28;20522;-73
2022/03/01 00:58:50;;;;;;;19.90;13.27;;;2.50;99.90;;;;;;5104175;28;20044;-73
2022/03/01 01:01:16;;;;;;;19.63;12.52;;;2.50;99.90;;;;;;5098190;28;20450;-73
2022/03/01 01:03:42;;;;;;;22.35;14.18;;;2.50;99.90;;;;;;5079401;28;20054;-73
2022/03/01 01:06:08;;;;;;;23.48;14.15;;;2.40;99.90;;;;;;5100149;28;20040;-73
2022/03/01 01:08:33;;;;;;;24.83;14.77;;;2.40;99.90;;;;;;5091361;28;20048;-73
2022/03/01 01:10:59;;;;;;;20.40;13.70;;;2.30;99.90;;;;;;5090596;28;20044;-73
2022/03/01 01:13:25;;;;;;;21.88;14.77;;;2.20;99.90;;;;;;5098006;28;20054;-73
2022/03/01 01:15:51;;;;;;;21.63;14.00;;;2.30;99.90;;;;;;5097002;28;20056;-73
2022/03/01 01:18:16;;;;;;;19.67;12.98;;;2.20;99.90;;;;;;5090264;28;20036;-73
2022/03/01 01:20:42;;;;;;;23.50;13.80;;;2.10;99.90;;;;;;5090105;28;20072;-73
2022/03/01 01:23:08;;;;;;;19.38;13.63;;;2.10;99.90;;;;;;5096519;28;20086;-73
2022/03/01 01:25:34;;;;;;;20.90;12.93;;;1.90;99.90;;;;;;5090499;28;20048;-73
2022/03/01 01:28:01;;;;;;;22.42;14.07;;;1.90;99.90;;;;;;5095031;28;20049;-73
2022/03/01 01:30:28;;;;;;;21.85;14.93;;;1.80;99.90;;;;;;5104120;28;20094;-73
2022/03/01 01:32:55;;;;;;;21.35;14.40;;;1.70;99.90;;;;;;5104467;28;20242;-73
2022/03/01 01:35:24;;;;;;;18.98;13.40;;;1.60;99.90;;;;;;5097547;28;20056;-73
2022/03/01 01:37:51;;;;;;;20.75;13.52;;;1.50;99.90;;;;;;5089081;28;20048;-73
2022/03/01 01:40:30;;;;;;;21.38;13.52;;;1.40;99.90;;;;;;5087583;28;20044;-73
2022/03/01 01:42:57;;;;;;;21.27;13.85;;;1.30;99.90;;;;;;5103656;28;20056;-73
2022/03/01 01:45:24;;;;;;;23.02;14.30;;;1.30;99.90;;;;;;5097537;28;20088;-73
2022/03/01 01:47:51;;;;;;;22.00;14.20;;;1.30;99.90;;;;;;5087042;28;20078;-73
2022/03/01 01:50:18;;;;;;;24.98;13.38;;;1.20;99.90;;;;;;5091886;28;20071;-73
2022/03/01 01:52:46;;;;;;;25.10;15.57;;;1.20;99.90;;;;;;5072072;28;20053;-74
2022/03/01 01:55:13;;;;;;;23.38;14.45;;;1.30;99.90;;;;;;5092226;28;20463;-74
2022/03/01 01:57:39;;;;;;;22.77;14.40;;;1.40;99.90;;;;;;5100726;28;20040;-73
2022/03/01 02:00:06;;;;;;;24.05;14.52;;;1.50;99.90;;;;;;5099857;28;20480;-73
2022/03/01 02:02:32;;;;;;;21.52;14.32;;;1.60;99.90;;;;;;5099296;28;20145;-73
2022/03/01 02:04:59;;;;;;;23.42;14.25;;;1.60;99.90;;;;;;5102524;28;20046;-73
2022/03/01 02:07:25;;;;;;;24.65;14.55;;;1.60;99.90;;;;;;5088784;28;20052;-73
2022/03/01 02:09:50;;;;;;;24.38;13.60;;;1.60;99.90;;;;;;5094700;28;20106;-74
2022/03/01 02:12:16;;;;;;;22.80;14.02;;;1.50;99.90;;;;;;5096585;28;20036;-73
2022/03/01 02:14:42;;;;;;;22.52;13.70;;;1.50;99.90;;;;;;5103278;28;20040;-74
2022/03/01 02:17:10;;;;;;;26.33;15.20;;;1.50;99.90;;;;;;5092155;28;20041;-73
2022/03/01 02:19:36;;;;;;;29.20;16.33;;;1.50;99.90;;;;;;5092838;28;20048;-73
2022/03/01 02:22:04;;;;;;;22.80;14.18;;;1.60;99.90;;;;;;5076265;28;20044;-73
2022/03/01 02:24:30;;;;;;;23.75;15.27;;;1.60;99.90;;;;;;5093443;28;20100;-73
2022/03/01 02:27:04;;;;;;;22.48;14.90;;;1.60;99.90;;;;;;5091303;28;20082;-73
2022/03/01 02:29:31;;;;;;;26.25;15.65;;;1.60;99.90;;;;;;5099655;28;20046;-73
2022/03/01 02:32:04;;;;;;;22.35;14.70;;;1.60;99.90;;;;;;5091292;28;20060;-73
2022/03/01 02:34:30;;;;;;;23.48;15.07;;;1.80;99.90;;;;;;5076938;28;20040;-73
2022/03/01 02:36:56;;;;;;;22.50;15.02;;;1.80;99.90;;;;;;5096806;28;20052;-73
2022/03/01 02:39:22;;;;;;;21.67;14.50;;;1.80;99.90;;;;;;5097034;28;20063;-73
2022/03/01 02:41:48;;;;;;;23.95;14.93;;;1.70;99.90;;;;;;5097798;28;20040;-73
2022/03/01 02:44:15;;;;;;;22.70;15.48;;;1.70;99.90;;;;;;5101816;28;20101;-73
2022/03/01 02:46:41;;;;;;;24.65;15.18;;;1.70;99.90;;;;;;5101042;28;20048;-73
2022/03/01 02:49:08;;;;;;;28.02;16.65;;;1.60;99.90;;;;;;5091601;28;20069;-73
2022/03/01 02:51:35;;;;;;;26.10;15.13;;;1.60;99.90;;;;;;5099716;28;20416;-73
2022/03/01 02:54:01;;;;;;;24.00;16.23;;;1.70;99.90;;;;;;5094261;28;20082;-73
2022/03/01 02:56:27;;;;;;;23.42;14.85;;;1.60;99.90;;;;;;5096369;28;20059;-73
2022/03/01 02:58:55;;;;;;;24.33;16.67;;;1.60;99.90;;;;;;5102789;28;20040;-73
2022/03/01 03:01:22;;;;;;;24.98;14.90;;;1.50;99.90;;;;;;5093150;28;20044;-73
2022/03/01 03:03:48;;;;;;;25.05;15.98;;;1.40;99.90;;;;;;5103013;28;20105;-73
2022/03/01 03:06:15;;;;;;;25.27;16.25;;;1.30;99.90;;;;;;5091505;28;20080;-73
2022/03/01 03:08:41;;;;;;;27.85;16.75;;;1.30;99.90;;;;;;5102332;28;20047;-73
2022/03/01 03:11:07;;;;;;;28.15;17.05;;;1.40;99.90;;;;;;5082099;28;20051;-73
2022/03/01 03:13:33;;;;;;;26.95;16.88;;;1.40;99.90;;;;;;5093307;28;20048;-73
2022/03/01 03:15:59;;;;;;;23.98;16.58;;;1.40;99.90;;;;;;5106761;28;20039;-73
2022/03/01 03:18:25;;;;;;;25.98;16.85;;;1.40;99.90;;;;;;5098687;28;20048;-73
2022/03/01 03:20:51;;;;;;;25.67;16.05;;;1.40;99.90;;;;;;5094364;28;20127;-73
2022/03/01 03:23:17;;;;;;;23.95;16.48;;;1.30;99.90;;;;;;5103584;28;20068;-73
2022/03/01 03:25:42;;;;;;;29.90;17.23;;;1.40;99.90;;;;;;5099843;28;20071;-73
2022/03/01 03:28:08;;;;;;;25.33;16.27;;;1.50;99.90;;;;;;5100703;28;20040;-73
2022/03/01 03:30:34;;;;;;;25.10;14.88;;;1.60;99.90;;;;;;5106126;28;20056;-73
2022/03/01 03:33:00;;;;;;;24.33;16.25;;;1.60;99.90;;;;;;5093986;28;20055;-73
2022/03/01 03:35:25;;;;;;;24.98;15.23;;;1.60;99.90;;;;;;5106732;28;20046;-73
2022/03/01 03:37:52;;;;;;;26.63;16.20;;;1.60;99.90;;;;;;5103825;28;20051;-73
2022/03/01 03:40:17;;;;;;;25.02;15.63;;;1.60;99.90;;;;;;5105488;28;21257;-73
2022/03/01 03:42:44;;;;;;;23.20;15.93;;;1.70;99.90;;;;;;5100181;28;20044;-73
2022/03/01 03:45:11;;;;;;;23.88;16.15;;;1.70;99.90;;;;;;5102397;28;20049;-73
2022/03/01 03:47:36;;;;;;;26.90;17.80;;;1.80;99.90;;;;;;5098395;28;20051;-73
2022/03/01 03:50:03;;;;;;;25.50;16.38;;;1.80;99.90;;;;;;5105775;28;20040;-73
2022/03/01 03:52:29;;;;;;;23.98;15.88;;;1.80;99.90;;;;;;5105658;28;20044;-73
2022/03/01 03:54:54;;;;;;;25.83;16.73;;;1.70;99.90;;;;;;5104193;28;20032;-73
2022/03/01 03:57:20;;;;;;;26.60;16.00;;;1.70;99.90;;;;;;5097835;28;20094;-73
2022/03/01 03:59:46;;;;;;;23.63;15.60;;;1.80;99.90;;;;;;5101748;28;20074;-73
2022/03/01 04:02:11;;;;;;;25.23;15.90;;;1.80;99.90;;;;;;5081743;28;20147;-73
2022/03/01 04:04:37;;;;;;;27.20;16.55;;;1.90;99.90;;;;;;5106038;28;20099;-73
2022/03/01 04:07:04;;;;;;;26.25;15.75;;;1.90;99.90;;;;;;5095663;28;20075;-73
2022/03/01 04:09:29;;;;;;;26.42;15.77;;;2.00;99.90;;;;;;5096738;28;20040;-73
2022/03/01 04:11:55;;;;;;;26.02;16.42;;;2.10;99.90;;;;;;5105084;28;20043;-73
2022/03/01 04:14:21;;;;;;;25.33;15.85;;;2.10;99.90;;;;;;5099532;28;20054;-73
2022/03/01 04:16:47;;;;;;;24.23;15.70;;;2.20;99.90;;;;;;5095131;28;20044;-73
2022/03/01 04:19:13;;;;;;;24.77;16.42;;;2.30;99.90;;;;;;5095342;28;20079;-73
2022/03/01 04:21:39;;;;;;;24.30;15.43;;;2.30;99.90;;;;;;5089027;28;20100;-73
2022/03/01 04:24:06;;;;;;;24.90;15.43;;;2.20;99.90;;;;;;5103762;28;20051;-73
2022/03/01 04:26:32;;;;;;;23.75;15.63;;;2.10;99.90;;;;;;5103730;28;20077;-73
2022/03/01 04:28:59;;;;;;;23.48;15.43;;;2.00;99.90;;;;;;5098899;28;20496;-73
2022/03/01 04:31:24;;;;;;;23.70;14.90;;;1.90;99.90;;;;;;5098071;28;20155;-73
2022/03/01 04:33:51;;;;;;;24.08;15.63;;;1.80;99.90;;;;;;5099604;28;20083;-73
2022/03/01 04:36:17;;;;;;;23.48;15.07;;;1.60;99.90;;;;;;5094827;28;20073;-73
2022/03/01 04:38:43;;;;;;;25.50;16.20;;;1.50;99.90;;;;;;5094945;28;20128;-73
2022/03/01 04:41:09;;;;;;;25.67;16.75;;;1.50;99.90;;;;;;5105961;28;20055;-74
2022/03/01 04:43:36;;;;;;;25.92;17.52;;;1.40;99.90;;;;;;5104620;28;20044;-73
2022/03/01 04:46:03;;;;;;;25.48;16.73;;;1.40;99.90;;;;;;5097946;28;20055;-73
2022/03/01 04:48:28;;;;;;;26.38;16.77;;;1.30;99.90;;;;;;5091904;28;20076;-73
2022/03/01 04:50:54;;;;;;;25.58;16.92;;;1.10;99.90;;;;;;5086679;28;20056;-73
2022/03/01 04:53:20;;;;;;;23.75;15.75;;;1.10;99.90;;;;;;5095345;28;20067;-73
2022/03/01 04:55:46;;;;;;;28.15;17.27;;;1.10;99.90;;;;;;5087047;28;20086;-73
2022/03/01 04:58:12;;;;;;;26.48;17.27;;;1.20;99.90;;;;;;5097216;28;20064;-73
2022/03/01 05:00:38;;;;;;;25.27;15.45;;;1.10;99.90;;;;;;5077707;28;20039;-73
2022/03/01 05:03:03;;;;;;;24.33;15.43;;;1.10;99.90;;;;;;5098619;28;20420;-73
2022/03/01 05:05:29;;;;;;;23.75;15.70;;;1.00;99.90;;;;;;5098871;28;20067;-73
2022/03/01 05:07:55;;;;;;;28.20;18.08;;;0.90;99.90;;;;;;5104089;28;20055;-73
2022/03/01 05:10:21;;;;;;;25.23;16.50;;;1.00;99.90;;;;;;5099072;28;20044;-74
2022/03/01 05:12:54;;;;;;;26.05;17.63;;;1.00;99.90;;;;;;5103992;28;20050;-73
2022/03/01 05:15:21;;;;;;;24.92;15.75;;;1.10;99.90;;;;;;5094231;28;20044;-73
2022/03/01 05:17:48;;;;;;;28.33;17.40;;;1.20;99.90;;;;;;5100664;28;20040;-73
2022/03/01 05:20:15;;;;;;;29.30;17.58;;;1.10;99.90;;;;;;5099827;28;20040;-73
2022/03/01 05:22:42;;;;;;;34.70;21.25;;;1.30;99.90;;;;;;5098338;28;20052;-73
2022/03/01 05:25:11;;;;;;;34.97;22.08;;;1.40;99.90;;;;;;5094220;28;20048;-73
2022/03/01 05:27:38;;;;;;;30.38;21.45;;;1.50;99.90;;;;;;5101523;28;20056;-73
2022/03/01 05:30:05;;;;;;;28.20;18.15;;;1.50;99.90;;;;;;5091497;28;20060;-73
2022/03/01 05:32:34;;;;;;;32.35;19.05;;;1.60;99.90;;;;;;5102907;28;20040;-70
2022/03/01 05:35:00;;;;;;;27.83;16.90;;;1.60;99.90;;;;;;5057587;28;20052;-73
2022/03/01 05:37:26;;;;;;;25.77;16.85;;;1.80;99.90;;;;;;5103939;28;20066;-73
2022/03/01 05:39:52;;;;;;;29.17;18.23;;;1.90;99.90;;;;;;5101442;28;20039;-75
2022/03/01 05:42:18;;;;;;;28.27;17.10;;;2.00;99.90;;;;;;5093900;28;20094;-81
2022/03/01 05:44:44;;;;;;;26.63;17.25;;;2.20;99.90;;;;;;5080312;28;20115;-80
2022/03/01 05:47:10;;;;;;;24.23;15.50;;;2.30;99.90;;;;;;5094000;28;20040;-81
2022/03/01 05:49:36;;;;;;;27.92;16.85;;;2.30;99.90;;;;;;5095005;28;20046;-75
2022/03/01 05:52:03;;;;;;;26.08;16.38;;;2.40;99.90;;;;;;5092618;28;20052;-75
2022/03/01 05:54:29;;;;;;;28.83;18.33;;;2.40;99.90;;;;;;5092683;28;20153;-74
2022/03/01 05:56:54;;;;;;;29.85;18.55;;;2.40;99.90;;;;;;5093920;28;20730;-74
2022/03/01 05:59:20;;;;;;;29.33;19.45;;;2.40;99.90;;;;;;5085975;28;20059;-73
2022/03/01 06:01:46;;;;;;;27.85;17.33;;;2.30;99.90;;;;;;5095067;28;20455;-75
2022/03/01 06:04:11;;;;;;;29.00;18.38;;;2.30;99.90;;;;;;5085769;28;20070;-76
2022/03/01 06:06:37;;;;;;;26.67;17.67;;;2.30;99.90;;;;;;5089389;28;20147;-77
2022/03/01 06:09:02;;;;;;;28.42;18.58;;;2.30;99.90;;;;;;5068460;28;20044;-76
2022/03/01 06:11:28;;;;;;;29.08;17.17;;;2.20;99.90;;;;;;5053207;28;20076;-77
2022/03/01 06:13:54;;;;;;;27.00;17.42;;;2.20;99.90;;;;;;5085477;28;20040;-76
2022/03/01 06:16:19;;;;;;;31.27;18.58;;;2.20;99.90;;;;;;5079588;28;20103;-68
2022/03/01 06:18:45;;;;;;;34.08;20.88;;;2.20;99.90;;;;;;5078922;28;20048;-72
2022/03/01 06:21:11;;;;;;;38.90;22.77;;;2.10;99.90;;;;;;5085258;28;20103;-72
2022/03/01 06:23:36;;;;;;;45.55;24.20;;;2.20;99.90;;;;;;5057882;28;20559;-74
2022/03/01 06:26:02;;;;;;;38.85;22.95;;;2.10;99.90;;;;;;5070838;28;20099;-74
2022/03/01 06:28:28;;;;;;;39.65;23.48;;;2.10;99.90;;;;;;5074677;28;20052;-74
2022/03/01 06:30:54;;;;;;;36.28;21.52;;;2.00;99.90;;;;;;5069016;28;20052;-74
2022/03/01 06:33:19;;;;;;;34.60;20.50;;;2.10;99.90;;;;;;5083883;28;20052;-74
2022/03/01 06:35:46;;;;;;;32.60;22.17;;;2.00;99.90;;;;;;5084593;28;20073;-74
2022/03/01 06:38:12;;;;;;;32.70;20.08;;;2.10;99.90;;;;;;5061842;28;20041;-74
2022/03/01 06:40:37;;;;;;;31.42;20.85;;;2.10;99.90;;;;;;5083317;28;20212;-74
2022/03/01 06:43:04;;;;;;;35.15;19.65;;;2.00;99.90;;;;;;5094247;28;20048;-74
2022/03/01 06:45:29;;;;;;;31.33;19.08;;;2.00;99.90;;;;;;5058900;28;20058;-73
2022/03/01 06:47:55;;;;;;;32.78;20.10;;;2.00;99.90;;;;;;5096950;28;20107;-75
2022/03/01 06:50:21;;;;;;;35.13;22.55;;;2.00;99.90;;;;;;5061290;28;20048;-74
2022/03/01 06:52:47;;;;;;;35.97;24.83;;;2.00;99.90;;;;;;5100085;28;20040;-75
2022/03/01 06:55:13;;;;;;;37.10;23.70;;;2.00;99.90;;;;;;5089142;28;20052;-73
2022/03/01 06:57:41;;;;;;;34.63;23.73;;;1.90;99.90;;;;;;5097442;28;20051;-74
2022/03/01 07:00:09;;;;;;;33.60;24.67;;;1.90;99.90;;;;;;5089019;28;20054;-75
2022/03/01 07:02:38;;;;;;;30.70;19.25;;;1.80;99.90;;;;;;5086824;28;20052;-72
2022/03/01 07:05:12;;;;;;;31.45;18.90;;;1.90;99.90;;;;;;5085258;28;20071;-72
2022/03/01 07:07:39;;;;;;;30.05;20.02;;;1.80;99.90;;;;;;5095868;28;20058;-72
2022/03/01 07:10:06;;;;;;;31.83;21.00;;;1.70;99.90;;;;;;5084977;28;20043;-72
2022/03/01 07:12:32;;;;;;;31.52;18.77;;;1.80;99.90;;;;;;5091364;28;20082;-72
2022/03/01 07:14:58;;;;;;;28.98;20.17;;;1.90;99.90;;;;;;5088116;28;20371;-72
2022/03/01 07:17:24;;;;;;;31.33;20.50;;;1.90;99.90;;;;;;5088096;28;20040;-72
2022/03/01 07:19:49;;;;;;;33.05;20.02;;;1.90;99.90;;;;;;5083081;28;20048;-71
2022/03/01 07:22:16;;;;;;;27.98;19.27;;;1.90;99.90;;;;;;5107004;28;20076;-72
2022/03/01 07:24:42;;;;;;;29.05;19.13;;;1.90;99.90;;;;;;5087450;28;20054;-72
2022/03/01 07:27:08;;;;;;;33.78;19.20;;;2.00;99.90;;;;;;5091266;28;20074;-72
2022/03/01 07:29:36;;;;;;;30.67;19.70;;;2.00;99.90;;;;;;5087757;28;20050;-72
2022/03/01 07:32:04;;;;;;;32.47;19.63;;;2.10;99.90;;;;;;5087470;28;20048;-72
2022/03/01 07:34:31;;;;;;;29.73;19.23;;;2.30;99.90;;;;;;5058119;28;20051;-72
2022/03/01 07:36:57;;;;;;;31.85;19.58;;;2.40;99.90;;;;;;5091448;28;20052;-71
2022/03/01 07:39:22;;;;;;;31.20;18.80;;;2.50;99.90;;;;;;5085046;28;20302;-72
2022/03/01 07:41:48;;;;;;;29.65;18.98;;;2.70;99.90;;;;;;5082528;28;20045;-71
2022/03/01 07:44:14;;;;;;;27.38;17.33;;;2.80;99.90;;;;;;5074567;28;20059;-72
2022/03/01 07:46:40;;;;;;;28.60;18.58;;;2.90;99.90;;;;;;5094814;28;20044;-71
2022/03/01 07:49:06;;;;;;;29.27;18.00;;;2.90;99.90;;;;;;5088558;28;20075;-71
2022/03/01 07:51:32;;;;;;;35.53;21.70;;;3.00;99.90;;;;;;5077975;28;20048;-72
2022/03/01 07:53:57;;;;;;;45.40;24.33;;;3.10;99.90;;;;;;5084535;28;20032;-72
2022/03/01 07:56:25;;;;;;;71.10;33.95;;;3.10;99.90;;;;;;5080036;28;20127;-72
2022/03/01 07:58:52;;;;;;;50.65;27.13;;;3.20;99.90;;;;;;5091127;28;20048;-72
2022/03/01 08:01:18;;;;;;;75.20;35.38;;;3.20;99.90;;;;;;5085119;28;20048;-72
2022/03/01 08:03:44;;;;;;;56.22;28.63;;;3.30;99.90;;;;;;5091217;28;20044;-72
2022/03/01 08:06:10;;;;;;;71.55;33.90;;;3.40;99.90;;;;;;5071697;28;20063;-72
2022/03/01 08:08:36;;;;;;;118.60;51.10;;;3.50;99.90;;;;;;5094405;28;20492;-72
2022/03/01 08:11:02;;;;;;;49.75;26.13;;;3.50;99.90;;;;;;5060624;28;20208;-72
2022/03/01 08:13:29;;;;;;;39.72;23.20;;;3.50;99.90;;;;;;5094498;28;20052;-72
2022/03/01 08:15:54;;;;;;;40.42;22.25;;;3.60;99.90;;;;;;5069674;28;20055;-72
2022/03/01 08:18:20;;;;;;;41.13;23.65;;;3.60;99.90;;;;;;5062475;28;20037;-72
2022/03/01 08:20:46;;;;;;;33.60;21.10;;;3.60;99.90;;;;;;5064844;28;20120;-72
2022/03/01 08:23:11;;;;;;;43.83;25.23;;;3.70;99.90;;;;;;5071341;28;20044;-72
2022/03/01 08:25:37;;;;;;;40.15;22.92;;;3.70;99.90;;;;;;5070766;28;20072;-71
2022/03/01 08:28:03;;;;;;;36.22;22.27;;;3.70;99.90;;;;;;5085333;28;20056;-72
2022/03/01 08:30:29;;;;;;;86.90;39.92;;;3.80;99.90;;;;;;5074851;28;20342;-72
2022/03/01 08:32:55;;;;;;;75.05;33.58;;;3.80;99.90;;;;;;5081744;28;20079;-72
2022/03/01 08:35:22;;;;;;;56.13;27.67;;;3.90;99.90;;;;;;5077587;28;20056;-72
2022/03/01 08:37:49;;;;;;;91.82;38.83;;;3.80;99.90;;;;;;5097523;28;20043;-72
2022/03/01 08:40:18;;;;;;;67.53;32.67;;;3.90;99.90;;;;;;5080109;28;20083;-72
2022/03/01 08:42:45;;;;;;;56.88;27.88;;;3.90;99.90;;;;;;5088857;28;20086;-72
2022/03/01 08:45:10;;;;;;;62.33;29.60;;;3.90;99.90;;;;;;5082594;28;20051;-72
2022/03/01 08:47:37;;;;;;;38.30;23.30;;;4.00;99.90;;;;;;5086561;28;20047;-68
2022/03/01 08:50:04;;;;;;;39.85;20.98;;;4.00;99.90;;;;;;5088614;28;20080;-68
2022/03/01 08:52:30;;;;;;;224.23;81.47;;;4.10;99.90;;;;;;5090980;28;20055;-68
2022/03/01 08:54:56;;;;;;;44.30;23.75;;;4.10;99.90;;;;;;5092115;28;20090;-68
2022/03/01 08:57:21;;;;;;;39.08;25.00;;;4.20;99.90;;;;;;5090347;28;20109;-67
2022/03/01 08:59:47;;;;;;;54.08;32.70;;;4.30;99.90;;;;;;5085976;28;20066;-67
2022/03/01 09:02:13;;;;;;;25.52;17.77;;;4.30;99.90;;;;;;5091778;28;20048;-67
2022/03/01 09:04:39;;;;;;;29.08;18.05;;;4.40;99.90;;;;;;5087206;28;20071;-67
2022/03/01 09:07:05;;;;;;;26.15;17.48;;;4.70;99.90;;;;;;5083079;28;20082;-67
2022/03/01 09:09:31;;;;;;;24.33;16.80;;;4.70;99.90;;;;;;5085049;28;20113;-68
2022/03/01 09:11:58;;;;;;;27.08;16.77;;;4.80;99.90;;;;;;5053542;28;20419;-67
2022/03/01 09:14:24;;;;;;;25.08;14.93;;;4.90;99.90;;;;;;5084329;28;20055;-67
2022/03/01 09:16:49;;;;;;;22.05;14.48;;;5.10;99.90;;;;;;5095886;28;20433;-68
2022/03/01 09:19:16;;;;;;;22.38;14.20;;;5.30;99.90;;;;;;5074695;28;20098;-68
2022/03/01 09:21:42;;;;;;;21.10;13.00;;;5.50;99.90;;;;;;5092376;28;20324;-67
2022/03/01 09:24:08;;;;;;;24.90;15.35;;;5.70;99.90;;;;;;5087139;28;20038;-67
2022/03/01 09:26:34;;;;;;;22.90;14.57;;;5.80;99.90;;;;;;5074338;28;20056;-67
2022/03/01 09:29:00;;;;;;;23.60;14.88;;;5.90;99.90;;;;;;5087174;28;20057;-67
2022/03/01 09:31:26;;;;;;;23.75;14.77;;;6.10;99.90;;;;;;5075684;28;20078;-67
2022/03/01 09:33:52;;;;;;;20.73;15.00;;;6.10;99.90;;;;;;5079023;28;20043;-67
2022/03/01 09:36:17;;;;;;;19.77;14.95;;;6.20;99.90;;;;;;5072917;28;20079;-67
2022/03/01 09:38:43;;;;;;;21.45;14.48;;;6.10;99.90;;;;;;5091297;28;20036;-66
2022/03/01 09:41:11;;;;;;;22.30;13.73;;;6.20;99.90;;;;;;5075781;28;20039;-67
2022/03/01 09:43:38;;;;;;;22.10;15.13;;;6.40;99.90;;;;;;5096735;28;20585;-66
2022/03/01 09:46:06;;;;;;;20.48;15.13;;;6.60;99.90;;;;;;5084673;28;20462;-67
2022/03/01 09:48:31;;;;;;;20.70;15.57;;;6.50;99.90;;;;;;5092529;28;20048;-66
2022/03/01 09:51:00;;;;;;;22.15;14.82;;;6.50;99.90;;;;;;5088187;28;20055;-66
2022/03/01 09:53:27;;;;;;;22.10;14.52;;;6.60;99.90;;;;;;5085661;28;20096;-67
2022/03/01 09:55:54;;;;;;;23.02;14.50;;;6.60;99.90;;;;;;5082981;28;20063;-67
2022/03/01 09:58:20;;;;;;;23.05;14.57;;;6.80;99.90;;;;;;5083789;28;20067;-67
2022/03/01 10:00:47;;;;;;;20.67;14.60;;;6.80;99.90;;;;;;5086530;28;20048;-67
2022/03/01 10:03:19;;;;;;;21.25;14.32;;;6.80;99.90;;;;;;5084599;28;20048;-67
2022/03/01 10:05:45;;;;;;;21.65;14.60;;;7.00;99.90;;;;;;5073039;28;20052;-67
2022/03/01 10:08:17;;;;;;;20.70;14.07;;;6.90;99.90;;;;;;5094863;28;20032;-67
2022/03/01 10:10:47;;;;;;;20.85;13.68;;;6.90;99.90;;;;;;5088716;28;20149;-67
2022/03/01 10:13:22;;;;;;;21.92;15.75;;;6.80;99.90;;;;;;5083925;28;20100;-67
2022/03/01 10:16:10;;;;;;;22.75;14.27;;;6.80;99.90;;;;;;5077579;28;20073;-67
2022/03/01 10:18:38;;;;;;;21.23;13.68;;;6.80;99.90;;;;;;5084590;28;20697;-67
2022/03/01 10:21:10;;;;;;;22.33;15.32;;;6.80;99.90;;;;;;5082508;28;20040;-67
2022/03/01 10:23:49;;;;;;;26.75;15.77;;;6.80;99.90;;;;;;5080223;28;20040;-67
2022/03/01 10:26:25;;;;;;;21.92;15.05;;;6.80;99.90;;;;;;5103778;28;20088;-67
2022/03/01 10:28:53;;;;;;;23.75;16.00;;;6.80;99.90;;;;;;5097740;28;20644;-67
2022/03/01 10:31:25;;;;;;;21.15;15.23;;;6.90;99.90;;;;;;5065577;28;20151;-67
2022/03/01 10:33:57;;;;;;;23.00;16.05;;;6.80;99.90;;;;;;5089218;28;20051;-67
2022/03/01 10:36:25;;;;;;;20.88;14.25;;;6.80;99.90;;;;;;5091356;28;20451;-67
2022/03/01 10:39:04;;;;;;;20.83;14.93;;;6.80;99.90;;;;;;5100020;28;20074;-66
2022/03/01 10:41:33;;;;;;;23.25;14.93;;;6.90;99.90;;;;;;5075296;28;20242;-67
2022/03/01 10:43:59;;;;;;;21.60;14.82;;;7.10;99.90;;;;;;5098634;28;20040;-66
2022/03/01 10:46:27;;;;;;;20.38;14.52;;;7.30;99.90;;;;;;5078453;28;20059;-67
2022/03/01 10:49:13;;;;;;;19.52;14.60;;;7.30;99.90;;;;;;5097854;28;20088;-67
2022/03/01 10:51:52;;;;;;;21.88;13.98;;;7.40;99.90;;;;;;5081892;28;20082;-67
2022/03/01 10:54:39;;;;;;;22.17;14.73;;;7.40;99.90;;;;;;5095071;28;20047;-67
2022/03/01 10:57:10;;;;;;;20.75;14.68;;;7.70;99.90;;;;;;5053810;28;20049;-67
2022/03/01 10:59:38;;;;;;;20.55;14.30;;;7.90;99.90;;;;;;5091231;28;20088;-67
2022/03/01 11:02:05;;;;;;;22.13;14.38;;;7.90;99.90;;;;;;5060810;28;20448;-67
2022/03/01 11:04:31;;;;;;;20.73;14.85;;;8.00;99.90;;;;;;5087675;28;20543;-67
2022/03/01 11:07:00;;;;;;;21.70;15.48;;;8.10;99.90;;;;;;5087787;28;20317;-68
2022/03/01 11:09:28;;;;;;;21.15;14.45;;;8.10;99.90;;;;;;5092815;28;20048;-67
2022/03/01 11:11:55;;;;;;;23.38;14.85;;;8.20;99.90;;;;;;5092360;28;20048;-67
2022/03/01 11:14:39;;;;;;;21.60;14.35;;;8.30;99.90;;;;;;5098348;28;20036;-67
2022/03/01 11:17:21;;;;;;;23.45;14.75;;;8.40;99.90;;;;;;5062488;28;20044;-67
2022/03/01 11:20:01;;;;;;;19.48;13.82;;;8.90;99.90;;;;;;5087419;28;20122;-68
2022/03/01 11:22:30;;;;;;;21.40;14.82;;;9.10;99.90;;;;;;5090097;28;20056;-67
2022/03/01 11:24:56;;;;;;;20.60;14.27;;;9.40;99.90;;;;;;5080833;28;20036;-67
2022/03/01 11:27:24;;;;;;;19.23;13.50;;;9.50;99.90;;;;;;5087198;28;20124;-67
2022/03/01 11:29:52;;;;;;;18.25;13.77;;;9.40;99.90;;;;;;5086575;28;20373;-67
2022/03/01 11:32:22;;;;;;;19.58;13.93;;;9.50;99.90;;;;;;5087503;28;20062;-67
2022/03/01 11:34:58;;;;;;;19.75;14.45;;;9.40;99.90;;;;;;5073615;28;20539;-68
2022/03/01 11:37:24;;;;;;;21.95;14.50;;;9.40;99.90;;;;;;5095547;28;20036;-66
2022/03/01 11:39:55;;;;;;;23.17;15.00;;;9.50;99.90;;;;;;5090057;28;20059;-67
2022/03/01 11:42:21;;;;;;;20.48;14.05;;;9.60;99.90;;;;;;5097358;28;20647;-67
2022/03/01 11:44:52;;;;;;;20.65;14.60;;;9.70;99.90;;;;;;5092068;28;20052;-69
2022/03/01 11:47:28;;;;;;;19.58;13.82;;;9.60;99.90;;;;;;5094170;28;20595;-67
2022/03/01 11:49:55;;;;;;;19.45;13.68;;;9.60;99.90;;;;;;5090314;28;20032;-68
2022/03/01 11:52:26;;;;;;;24.10;14.57;;;9.70;99.90;;;;;;5099345;28;20108;-68
2022/03/01 11:54:55;;;;;;;21.20;14.80;;;9.60;99.90;;;;;;5089336;28;20047;-68
2022/03/01 11:57:25;;;;;;;21.15;14.35;;;9.60;99.90;;;;;;5097715;28;20714;-67
2022/03/01 11:59:53;;;;;;;21.35;14.50;;;9.60;99.90;;;;;;5082914;28;20041;-69
2022/03/01 12:02:19;;;;;;;20.80;13.95;;;9.60;99.90;;;;;;5099483;28;20370;-68
2022/03/01 12:04:50;;;;;;;19.92;15.13;;;9.60;99.90;;;;;;5097384;28;20064;-68
2022/03/01 12:07:22;;;;;;;21.17;15.10;;;9.60;99.90;;;;;;5054850;28;20066;-68
2022/03/01 12:10:03;;;;;;;19.52;14.52;;;9.60;99.90;;;;;;5083090;28;20081;-67
2022/03/01 12:12:35;;;;;;;19.77;13.98;;;9.60;99.90;;;;;;5034358;28;20152;-67
2022/03/01 12:15:02;;;;;;;22.77;14.15;;;9.90;99.90;;;;;;5065403;28;20052;-67
2022/03/01 12:17:46;;;;;;;22.08;15.00;;;9.80;99.90;;;;;;5074651;28;20127;-67
2022/03/01 12:20:17;;;;;;;22.58;14.10;;;9.70;99.90;;;;;;5069369;28;20056;-68
2022/03/01 12:22:51;;;;;;;19.92;14.07;;;9.90;99.90;;;;;;5081458;28;20052;-68
2022/03/01 12:25:17;;;;;;;19.77;14.00;;;10.20;99.90;;;;;;5068302;28;20059;-68
2022/03/01 12:27:43;;;;;;;19.33;14.35;;;10.20;99.90;;;;;;5074970;28;20052;-68
2022/03/01 12:30:10;;;;;;;19.20;14.30;;;10.10;99.90;;;;;;5080927;28;20055;-68
2022/03/01 12:32:36;;;;;;;23.45;15.18;;;10.20;99.90;;;;;;5080181;28;20039;-68
2022/03/01 12:35:03;;;;;;;19.65;13.50;;;10.10;99.90;;;;;;5059822;28;20052;-69